Startpagina
METAR-TAF:

METAR-TAF

Vliegvelden :

Baker City, Oregon, Verenigde Staten

breedte: 44-50-14N, lengte: 117-48-33W, hoogte: 1028 m

Actueel weer

Dit bericht is 41 minuten geleden gemaakt, om 04:53 UTC
Weinig wind
Temperatuur -6°C
Vochtigheid 86%
Druk 1026 hPa
Zicht: 16.1 km
Onbewolkt

METAR: KBKE 180453Z AUTO 00000KT 10SM CLR M06/M08 A3030 RMK AO2 SLP290 I1000 T10561078 TSNO

Tijdstip: 21:34 (05:34 UTC)

Verwachting

Dit bericht is 5 uur en het 56 minuten geleden gemaakt, om 23:38 UTC
Verwachting geldig van 18 om 00 UTC tot 18 om 24 UTC
Wind 6 kt uit variabele richting
Zicht: 10 km
Onbewolkt

TAF: KBKE 172338Z 1800/1824 VRB06KT P6SM SKC

Waarnemingen en weersverwachtingen van meer dan 4000 vliegvelden (METAR en TAF).

De beschikbare stations zijn de gele en rode punten op de kaart.

Ga met uw muis naar het station om de naam te zien.

Klik dan om waarnemingen en weersverwachtingen te zien.

kaart wijzigen: klik op de groene knoppen met een zwart kruis om in te zoomen, op de groene knop met een streepje om uit te zoomen of op de groene pijlen voor aangrenzende kaarten.


METAR-TAF: